Time;durP1;ratioP1;P1;durP2;ratioP2;P2;SDS_P1;SDS_P2;PMS_P1;PMS_P2;Temp;Humidity;BMP_temperature;BMP_pressure;BME280_temperature;BME280_humidity;BME280_pressure;Samples;Min_cycle;Max_cycle;Signal;HPM_P1;HPM_P2
2023/12/16 00:03:11;;;;;;;6.40;2.25;;;;;;;6.59;65.99;102226.59;10469874;28;20068;-69
2023/12/16 00:08:13;;;;;;;7.35;2.00;;;;;;;6.57;65.94;102219.66;10479275;28;20139;-68
2023/12/16 00:13:15;;;;;;;6.07;2.30;;;;;;;6.57;65.95;102230.06;10476468;28;20055;-67
2023/12/16 00:18:17;;;;;;;4.35;2.33;;;;;;;6.63;65.75;102236.09;10480015;28;20102;-67
2023/12/16 00:23:20;;;;;;;4.20;2.20;;;;;;;6.75;65.47;102246.41;10503769;28;20052;-69
2023/12/16 00:28:22;;;;;;;4.03;2.38;;;;;;;6.65;65.33;102234.34;10475481;28;20444;-68
2023/12/16 00:33:24;;;;;;;5.15;1.98;;;;;;;6.67;65.23;102226.53;10472258;28;20489;-68
2023/12/16 00:38:26;;;;;;;4.10;2.70;;;;;;;6.58;65.60;102226.56;10515940;28;20044;-68
2023/12/16 00:43:28;;;;;;;4.35;2.35;;;;;;;6.46;65.58;102234.47;10514478;28;20052;-68
2023/12/16 00:48:31;;;;;;;7.55;2.42;;;;;;;6.51;65.71;102219.72;10501636;28;20567;-68
2023/12/16 00:53:33;;;;;;;3.90;2.20;;;;;;;6.65;65.75;102213.53;10519532;28;20524;-68
2023/12/16 00:58:35;;;;;;;5.03;2.15;;;;;;;6.71;65.40;102223.03;10500893;28;20047;-68
2023/12/16 01:03:37;;;;;;;3.28;1.90;;;;;;;6.64;65.14;102217.00;10516887;28;20059;-68
2023/12/16 01:08:39;;;;;;;5.18;2.05;;;;;;;6.56;65.17;102234.41;10518494;28;20484;-68
2023/12/16 01:13:41;;;;;;;4.68;2.22;;;;;;;6.55;65.04;102231.81;10516641;28;20059;-68
2023/12/16 01:18:43;;;;;;;5.47;1.88;;;;;;;6.48;64.91;102235.31;10499489;28;20116;-68
2023/12/16 01:23:46;;;;;;;4.38;2.58;;;;;;;6.46;64.94;102237.94;10517724;28;20431;-68
2023/12/16 01:28:48;;;;;;;4.80;2.58;;;;;;;6.52;64.74;102237.03;10507649;28;20048;-67
2023/12/16 01:33:50;;;;;;;7.35;2.03;;;;;;;6.57;64.67;102240.47;10515896;28;20130;-68
2023/12/16 01:38:52;;;;;;;3.45;1.90;;;;;;;6.47;64.63;102247.44;10494319;28;20040;-67
2023/12/16 01:43:54;;;;;;;5.28;2.40;;;;;;;6.52;64.67;102257.81;10515387;28;20380;-68
2023/12/16 01:48:56;;;;;;;7.95;2.60;;;;;;;6.51;64.57;102251.75;10497920;28;20442;-67
2023/12/16 01:53:59;;;;;;;6.03;3.05;;;;;;;6.48;64.70;102243.97;10516617;28;20070;-67
2023/12/16 01:59:02;;;;;;;5.60;2.63;;;;;;;6.56;64.47;102247.41;10519031;28;20135;-68
2023/12/16 02:04:04;;;;;;;6.45;2.08;;;;;;;6.54;64.19;102258.66;10512933;28;20411;-67
2023/12/16 02:09:06;;;;;;;3.22;1.80;;;;;;;6.52;64.23;102269.09;10517593;28;20048;-68
2023/12/16 02:14:09;;;;;;;6.85;2.72;;;;;;;6.40;64.16;102266.56;10490890;28;20073;-67
2023/12/16 02:19:12;;;;;;;3.53;2.40;;;;;;;6.38;64.44;102264.84;10513503;28;20051;-67
2023/12/16 02:24:14;;;;;;;5.20;1.90;;;;;;;6.26;64.45;102257.97;10513624;28;20126;-68
2023/12/16 02:29:16;;;;;;;5.57;2.38;;;;;;;6.26;64.62;102255.38;10515998;28;20054;-68
2023/12/16 02:34:19;;;;;;;5.72;2.10;;;;;;;6.31;64.33;102254.47;10512478;28;20428;-68
2023/12/16 02:39:22;;;;;;;5.45;1.90;;;;;;;6.30;64.28;102263.16;10517002;28;20473;-68
2023/12/16 02:44:24;;;;;;;4.50;1.83;;;;;;;6.35;64.27;102268.31;10515261;28;20377;-68
2023/12/16 02:49:27;;;;;;;8.18;2.42;;;;;;;6.35;64.33;102266.56;10515342;28;20415;-67
2023/12/16 02:54:29;;;;;;;4.90;2.22;;;;;;;6.37;64.23;102268.31;10527280;28;20746;-68
2023/12/16 02:59:32;;;;;;;4.75;2.30;;;;;;;6.30;64.08;102275.28;10530639;27;20124;-68
2023/12/16 03:04:34;;;;;;;4.50;1.90;;;;;;;6.20;64.05;102265.78;10515982;28;20111;-67
2023/12/16 03:09:36;;;;;;;3.42;1.95;;;;;;;6.14;64.42;102277.03;10495551;28;20530;-67
2023/12/16 03:14:39;;;;;;;5.07;2.92;;;;;;;6.16;64.42;102277.03;10493569;28;20093;-67
2023/12/16 03:19:42;;;;;;;2.92;1.70;;;;;;;6.24;64.34;102273.56;10513833;28;20445;-69
2023/12/16 03:24:44;;;;;;;4.80;2.70;;;;;;;6.38;64.29;102259.63;10527136;27;20047;-68
2023/12/16 03:29:47;;;;;;;5.68;2.15;;;;;;;6.23;63.79;102270.94;10514940;28;20052;-68
2023/12/16 03:34:49;;;;;;;6.03;1.98;;;;;;;6.19;64.05;102267.50;10514622;28;20047;-68
2023/12/16 03:39:51;;;;;;;3.45;2.00;;;;;;;6.17;64.11;102266.63;10489408;28;20055;-69
2023/12/16 03:44:53;;;;;;;2.97;1.80;;;;;;;6.13;64.12;102262.31;10512817;28;20094;-68
2023/12/16 03:49:55;;;;;;;4.40;2.30;;;;;;;6.05;64.22;102265.81;10497527;28;20214;-68
2023/12/16 03:54:57;;;;;;;4.68;1.77;;;;;;;6.08;64.19;102258.03;10492929;28;20054;-69
2023/12/16 04:00:00;;;;;;;3.55;1.80;;;;;;;6.07;64.57;102259.75;10512300;28;20054;-68
2023/12/16 04:05:13;;;;;;;2.97;1.73;;;;;;;6.03;64.34;102262.38;10526065;28;20044;-69
2023/12/16 04:10:15;;;;;;;5.57;1.88;;;;;;;5.98;64.37;102252.00;10512997;28;20067;-68
2023/12/16 04:15:17;;;;;;;6.00;2.40;;;;;;;6.10;64.35;102261.50;10514079;28;20040;-68
2023/12/16 04:20:18;;;;;;;3.13;1.70;;;;;;;6.20;64.06;102270.97;10513311;28;20459;-69
2023/12/16 04:25:20;;;;;;;3.72;1.98;;;;;;;6.08;64.46;102269.25;10511106;28;20171;-69
2023/12/16 04:30:22;;;;;;;4.32;1.80;;;;;;;6.09;64.03;102270.13;10513017;28;20810;-68
2023/12/16 04:35:24;;;;;;;3.97;1.80;;;;;;;6.10;64.20;102277.91;10510424;28;20056;-69
2023/12/16 04:40:27;;;;;;;5.18;2.00;;;;;;;6.16;63.96;102280.53;10494831;28;20426;-68
2023/12/16 04:45:29;;;;;;;7.28;2.28;;;;;;;6.10;64.23;102274.47;10512720;28;20048;-68
2023/12/16 04:50:31;;;;;;;4.50;2.40;;;;;;;6.13;64.20;102270.13;10515592;28;20067;-68
2023/12/16 04:55:33;;;;;;;4.60;2.30;;;;;;;6.12;63.99;102267.53;10520347;28;20048;-67
2023/12/16 05:00:35;;;;;;;4.88;2.25;;;;;;;6.13;63.98;102270.13;10517164;28;20290;-68
2023/12/16 05:05:37;;;;;;;7.20;1.75;;;;;;;6.03;64.03;102265.84;10520243;28;20066;-68
2023/12/16 05:10:39;;;;;;;3.35;1.98;;;;;;;5.99;63.92;102282.31;10500783;28;20122;-68
2023/12/16 05:15:42;;;;;;;6.00;1.80;;;;;;;6.12;63.91;102290.91;10520014;28;20222;-69
2023/12/16 05:20:44;;;;;;;3.63;1.98;;;;;;;6.15;63.94;102286.56;10503466;28;20254;-68
2023/12/16 05:25:46;;;;;;;4.38;2.05;;;;;;;6.28;63.64;102303.88;10535786;27;20128;-69
2023/12/16 05:30:48;;;;;;;3.72;1.70;;;;;;;6.26;63.62;102300.44;10515494;28;20047;-67
2023/12/16 05:35:50;;;;;;;7.63;2.03;;;;;;;6.24;63.39;102298.66;10533653;27;20502;-67
2023/12/16 05:40:53;;;;;;;5.80;1.88;;;;;;;6.17;63.55;102304.75;10497361;28;20562;-68
2023/12/16 05:45:55;;;;;;;4.50;2.03;;;;;;;6.11;63.61;102297.84;10519695;28;20055;-68
2023/12/16 05:50:57;;;;;;;3.45;1.60;;;;;;;6.08;63.66;102303.03;10496869;28;20135;-69
2023/12/16 05:55:59;;;;;;;8.20;2.03;;;;;;;6.06;63.63;102307.38;10497643;28;20044;-69
2023/12/16 06:01:01;;;;;;;5.60;1.98;;;;;;;6.09;63.89;102315.16;10500576;28;20056;-68
2023/12/16 06:06:04;;;;;;;3.60;1.73;;;;;;;6.11;63.43;102313.44;10483201;28;20476;-67
2023/12/16 06:11:11;;;;;;;3.25;2.05;;;;;;;6.18;63.53;102316.88;10500179;28;20052;-68
2023/12/16 06:16:17;;;;;;;8.95;3.15;;;;;;;6.30;63.57;102314.25;10498915;28;20462;-66
2023/12/16 06:21:21;;;;;;;3.75;2.08;;;;;;;6.27;63.60;102324.66;10529495;27;20044;-67
2023/12/16 06:26:23;;;;;;;7.85;2.28;;;;;;;6.20;63.52;102326.41;10497966;28;20052;-68
2023/12/16 06:31:26;;;;;;;5.80;3.05;;;;;;;6.30;63.36;102319.47;10514063;28;20109;-67
2023/12/16 06:36:28;;;;;;;3.90;1.90;;;;;;;6.21;63.11;102311.66;10482014;28;20407;-66
2023/12/16 06:41:30;;;;;;;4.50;2.03;;;;;;;6.06;63.15;102309.97;10499594;28;20052;-67
2023/12/16 06:46:32;;;;;;;12.68;2.15;;;;;;;6.05;63.10;102321.25;10512918;28;20098;-67
2023/12/16 06:51:34;;;;;;;5.25;1.95;;;;;;;6.01;63.09;102316.94;10493754;28;20081;-67
2023/12/16 06:56:37;;;;;;;4.85;2.15;;;;;;;6.02;63.20;102313.44;10511882;28;20135;-67
2023/12/16 07:01:39;;;;;;;4.32;1.92;;;;;;;6.13;63.23;102331.59;10475518;28;20040;-67
2023/12/16 07:06:41;;;;;;;3.85;1.48;;;;;;;6.14;63.03;102326.41;10496428;28;20222;-68
2023/12/16 07:11:43;;;;;;;3.13;1.58;;;;;;;6.23;62.87;102323.78;10515844;28;20060;-67
2023/12/16 07:16:45;;;;;;;5.25;1.90;;;;;;;6.21;62.98;102311.66;10495564;28;20044;-66
2023/12/16 07:21:47;;;;;;;5.65;2.28;;;;;;;6.18;63.00;102325.53;10485606;28;20076;-67
2023/12/16 07:26:49;;;;;;;4.30;1.92;;;;;;;6.08;63.10;102310.81;10519151;27;20416;-67
2023/12/16 07:31:51;;;;;;;6.65;2.42;;;;;;;6.17;63.21;102326.41;10506159;28;20042;-66
2023/12/16 07:36:53;;;;;;;2.97;1.90;;;;;;;6.30;63.47;102328.13;10505020;28;20397;-67
2023/12/16 07:41:55;;;;;;;2.58;1.60;;;;;;;6.38;63.15;102329.81;10502148;28;20044;-67
2023/12/16 07:46:57;;;;;;;3.20;2.00;;;;;;;6.44;62.91;102347.97;10486514;28;20086;-67
2023/12/16 07:52:00;;;;;;;2.95;1.88;;;;;;;6.54;62.71;102344.47;10488278;28;20039;-68
2023/12/16 07:57:03;;;;;;;2.75;1.60;;;;;;;6.57;62.60;102347.06;10502371;28;20094;-66
2023/12/16 08:02:08;;;;;;;5.13;1.92;;;;;;;6.66;62.55;102355.66;10518917;28;20267;-67
2023/12/16 08:07:10;;;;;;;4.90;1.98;;;;;;;6.68;62.65;102364.31;10504339;28;20101;-67
2023/12/16 08:12:12;;;;;;;3.00;1.60;;;;;;;6.65;62.85;102374.75;10485978;28;20234;-67
2023/12/16 08:17:14;;;;;;;4.35;2.30;;;;;;;6.64;62.77;102370.41;10496150;28;20496;-67
2023/12/16 08:22:16;;;;;;;4.15;2.33;;;;;;;6.65;62.51;102366.09;10497353;28;20047;-67
2023/12/16 08:27:18;;;;;;;4.70;1.98;;;;;;;6.71;62.11;102381.66;10496325;28;20093;-68
2023/12/16 08:32:22;;;;;;;5.50;1.65;;;;;;;6.85;61.86;102377.25;10483266;28;20044;-68
2023/12/16 08:37:24;;;;;;;3.35;1.92;;;;;;;6.82;62.25;102380.72;10484329;28;20531;-68
2023/12/16 08:42:26;;;;;;;5.13;2.20;;;;;;;6.88;61.58;102374.59;10486070;28;20040;-69
2023/12/16 08:47:29;;;;;;;4.05;1.60;;;;;;;6.96;61.41;102368.50;10510562;28;20501;-69
2023/12/16 08:52:32;;;;;;;5.50;2.42;;;;;;;7.07;60.91;102377.09;10515635;28;20446;-68
2023/12/16 08:57:34;;;;;;;3.22;1.80;;;;;;;7.17;60.69;102385.69;10498534;28;20059;-68
2023/12/16 09:02:39;;;;;;;6.47;2.35;;;;;;;7.29;60.01;102385.59;10509456;28;20044;-68
2023/12/16 09:07:41;;;;;;;3.80;2.20;;;;;;;7.33;60.12;102387.31;10514168;28;20089;-68
2023/12/16 09:12:43;;;;;;;7.50;2.28;;;;;;;7.47;60.17;102395.03;10516731;28;20122;-68
2023/12/16 09:17:47;;;;;;;7.00;1.98;;;;;;;7.52;59.34;102393.25;10516513;28;21183;-69
2023/12/16 09:22:49;;;;;;;7.45;2.05;;;;;;;7.53;59.35;102390.63;10514938;28;20513;-69
2023/12/16 09:27:51;;;;;;;6.80;2.28;;;;;;;7.53;58.45;102400.19;10514184;28;20577;-69
2023/12/16 09:32:53;;;;;;;5.78;1.85;;;;;;;7.47;58.56;102398.47;10514506;28;20640;-69
2023/12/16 09:37:55;;;;;;;6.85;1.98;;;;;;;7.68;58.99;102406.13;10511181;28;20564;-69
2023/12/16 09:43:12;;;;;;;3.42;1.63;;;;;;;7.85;56.86;102405.97;10512480;28;20438;-69
2023/12/16 09:48:19;;;;;;;4.47;1.90;;;;;;;7.88;57.99;102409.41;10513483;28;20781;-68
2023/12/16 09:53:22;;;;;;;4.07;1.80;;;;;;;7.90;57.96;102412.00;10530037;27;20055;-68
2023/12/16 09:58:24;;;;;;;2.60;1.50;;;;;;;8.08;57.57;102408.38;10494499;28;20115;-68
2023/12/16 10:03:26;;;;;;;2.83;1.55;;;;;;;7.98;57.67;102402.38;10513717;28;20044;-69
2023/12/16 10:08:29;;;;;;;7.88;2.03;;;;;;;8.15;57.70;102394.41;10512013;28;20376;-68
2023/12/16 10:13:32;;;;;;;3.72;1.83;;;;;;;8.25;57.10;102389.09;10511269;28;20075;-68
2023/12/16 10:18:34;;;;;;;10.40;2.00;;;;;;;8.19;56.90;102390.88;10488192;28;20044;-67
2023/12/16 10:23:37;;;;;;;4.75;1.75;;;;;;;8.04;56.68;102390.13;10511385;28;20032;-68
2023/12/16 10:28:39;;;;;;;3.53;1.40;;;;;;;8.09;56.85;102400.53;10488159;28;20879;-68
2023/12/16 10:33:42;;;;;;;2.67;1.33;;;;;;;8.34;55.87;102393.34;10508998;28;20078;-68
2023/12/16 10:38:44;;;;;;;3.63;1.80;;;;;;;8.40;56.29;102403.69;10510242;28;20511;-68
2023/12/16 10:43:46;;;;;;;3.45;1.77;;;;;;;8.32;56.15;102403.78;10513332;28;20052;-68
2023/12/16 10:48:54;;;;;;;5.25;2.28;;;;;;;8.19;55.40;102398.72;10494865;28;20519;-68
2023/12/16 10:54:06;;;;;;;5.10;1.52;;;;;;;8.36;55.39;102394.19;10514034;28;20533;-68
2023/12/16 10:59:30;;;;;;;6.95;2.33;;;;;;;8.55;55.36;102391.31;10493633;28;20074;-68
2023/12/16 11:04:38;;;;;;;4.72;1.92;;;;;;;8.65;55.27;102395.53;10507931;28;20155;-68
2023/12/16 11:09:40;;;;;;;3.20;1.30;;;;;;;8.66;55.28;102386.84;10505957;28;20032;-68
2023/12/16 11:14:43;;;;;;;5.03;1.52;;;;;;;8.79;55.75;102377.13;10491277;28;20110;-68
2023/12/16 11:19:58;;;;;;;5.68;1.58;;;;;;;8.91;54.72;102374.34;10507875;28;20109;-68
2023/12/16 11:25:00;;;;;;;8.43;2.03;;;;;;;8.90;55.29;102367.38;10509010;28;20071;-69
2023/12/16 11:30:03;;;;;;;3.08;1.63;;;;;;;8.80;54.86;102369.25;10506493;28;20423;-69
2023/12/16 11:35:07;;;;;;;5.03;1.17;;;;;;;8.85;54.95;102371.81;10503438;28;20428;-68
2023/12/16 11:40:40;;;;;;;3.58;1.70;;;;;;;8.92;53.82;102363.00;10503709;28;20299;-68
2023/12/16 11:45:44;;;;;;;6.18;2.40;;;;;;;9.06;54.01;102355.81;10504655;28;20052;-68
2023/12/16 11:50:47;;;;;;;5.72;1.50;;;;;;;9.01;55.05;102336.78;10506292;28;20446;-68
2023/12/16 11:55:49;;;;;;;6.32;2.22;;;;;;;9.03;54.85;102327.16;10502215;28;20496;-68
2023/12/16 12:00:51;;;;;;;7.60;1.85;;;;;;;8.94;54.74;102316.00;10506386;28;20044;-68
2023/12/16 12:05:54;;;;;;;4.07;1.40;;;;;;;8.74;54.08;102305.84;10505275;28;20047;-69
2023/12/16 12:10:59;;;;;;;3.42;1.75;;;;;;;8.80;54.49;102300.53;10485245;28;20385;-68
2023/12/16 12:16:02;;;;;;;8.52;1.60;;;;;;;8.80;54.71;102288.38;10488831;28;20093;-68
2023/12/16 12:21:04;;;;;;;9.73;2.25;;;;;;;8.83;54.29;102287.47;10504758;28;20052;-68
2023/12/16 12:26:06;;;;;;;4.80;1.50;;;;;;;8.84;54.68;102273.53;10504994;28;20044;-68
2023/12/16 12:31:09;;;;;;;4.40;1.80;;;;;;;8.95;54.36;102258.56;10504715;28;20441;-68
2023/12/16 12:36:11;;;;;;;2.90;1.60;;;;;;;9.04;54.57;102260.16;10504009;28;20127;-68
2023/12/16 12:41:16;;;;;;;4.38;1.92;;;;;;;9.11;54.00;102252.22;10504959;28;20071;-68
2023/12/16 12:46:19;;;;;;;5.80;1.65;;;;;;;9.23;54.39;102248.50;10504208;28;20048;-68
2023/12/16 12:51:21;;;;;;;2.97;1.30;;;;;;;9.23;54.01;102249.38;10502408;28;20052;-68
2023/12/16 12:56:23;;;;;;;7.72;1.60;;;;;;;9.20;54.11;102231.16;10504433;28;20044;-68
2023/12/16 13:01:25;;;;;;;2.85;1.58;;;;;;;9.29;54.08;102217.94;10510544;28;20040;-67
2023/12/16 13:06:27;;;;;;;3.22;1.20;;;;;;;9.27;53.90;102217.09;10505938;28;20134;-68
2023/12/16 13:11:31;;;;;;;2.50;1.58;;;;;;;9.18;53.85;102217.25;10490202;28;20047;-69
2023/12/16 13:16:33;;;;;;;7.22;2.10;;;;;;;8.96;54.09;102204.59;10518189;28;20456;-68
2023/12/16 13:21:36;;;;;;;4.75;1.42;;;;;;;8.83;54.12;102207.41;10496401;28;20233;-67
2023/12/16 13:26:38;;;;;;;4.15;1.55;;;;;;;8.88;54.23;102215.19;10497348;28;20226;-67
2023/12/16 13:31:40;;;;;;;1.98;1.05;;;;;;;8.81;53.96;102218.78;10510060;28;20082;-67
2023/12/16 13:36:42;;;;;;;7.20;1.70;;;;;;;8.68;54.22;102222.47;10517466;28;20044;-67
2023/12/16 13:41:53;;;;;;;3.78;1.75;;;;;;;8.80;54.23;102222.28;10516124;28;20040;-67
2023/12/16 13:46:55;;;;;;;11.43;1.63;;;;;;;8.77;53.84;102223.19;10511079;28;20054;-65
2023/12/16 13:51:57;;;;;;;3.75;1.23;;;;;;;8.76;54.34;102225.81;10491406;28;20040;-67
2023/12/16 13:57:00;;;;;;;3.28;1.35;;;;;;;8.74;54.19;102211.94;10517322;28;20080;-67
2023/12/16 14:02:02;;;;;;;2.35;1.10;;;;;;;8.69;53.90;102212.00;10483425;28;20040;-67
2023/12/16 14:07:05;;;;;;;2.55;1.33;;;;;;;8.67;53.79;102215.50;10518632;28;20051;-67
2023/12/16 14:12:07;;;;;;;4.45;1.75;;;;;;;8.60;53.48;102209.56;10518354;28;20491;-67
2023/12/16 14:17:09;;;;;;;5.28;2.13;;;;;;;8.56;53.51;102207.00;10499936;28;20055;-67
2023/12/16 14:22:11;;;;;;;6.15;1.52;;;;;;;8.50;54.03;102204.50;10516547;28;20063;-68
2023/12/16 14:27:13;;;;;;;2.38;1.30;;;;;;;8.47;53.89;102192.38;10515946;28;20135;-67
2023/12/16 14:32:15;;;;;;;3.33;1.80;;;;;;;8.38;54.10;102182.09;10498952;28;20044;-67
2023/12/16 14:37:17;;;;;;;6.07;1.50;;;;;;;8.26;53.88;102170.97;10514743;28;20496;-67
2023/12/16 14:42:19;;;;;;;6.60;1.90;;;;;;;8.23;54.47;102174.47;10516487;28;20029;-67
2023/12/16 14:47:21;;;;;;;4.50;1.60;;;;;;;8.14;54.31;102168.56;10514202;28;20044;-67
2023/12/16 14:52:23;;;;;;;4.53;1.83;;;;;;;8.04;54.78;102175.59;10531444;27;20246;-67
2023/12/16 14:57:26;;;;;;;6.32;2.03;;;;;;;8.06;54.67;102173.81;10515264;28;20050;-67
2023/12/16 15:02:28;;;;;;;3.42;1.75;;;;;;;8.14;54.71;102172.00;10514693;28;20206;-67
2023/12/16 15:07:30;;;;;;;4.88;1.55;;;;;;;8.13;54.72;102170.28;10493417;28;20454;-67
2023/12/16 15:12:32;;;;;;;6.72;1.40;;;;;;;8.13;54.78;102167.69;10514176;28;20048;-67
2023/12/16 15:17:35;;;;;;;5.05;2.17;;;;;;;8.03;55.08;102159.09;10515453;28;20044;-67
2023/12/16 15:22:38;;;;;;;3.95;1.63;;;;;;;8.06;55.14;102162.56;10514361;28;20040;-66
2023/12/16 15:27:40;;;;;;;6.90;1.52;;;;;;;7.96;55.13;102167.88;10513992;28;20040;-67
2023/12/16 15:32:43;;;;;;;4.35;1.30;;;;;;;8.06;55.16;102167.75;10514474;28;20452;-67
2023/12/16 15:37:45;;;;;;;3.83;2.08;;;;;;;8.10;55.39;102154.69;10513502;28;20430;-67
2023/12/16 15:42:47;;;;;;;4.65;1.92;;;;;;;7.96;55.84;102161.78;10509446;28;20050;-67
2023/12/16 15:47:49;;;;;;;3.20;1.40;;;;;;;7.79;56.09;102154.19;10515144;28;20040;-67
2023/12/16 15:52:51;;;;;;;3.60;1.40;;;;;;;7.62;56.30;102153.56;10510909;28;20054;-67
2023/12/16 15:57:53;;;;;;;3.13;1.70;;;;;;;7.43;56.46;102156.41;10513689;28;20036;-67
2023/12/16 16:02:55;;;;;;;4.03;1.45;;;;;;;7.18;56.52;102168.84;10512356;28;20048;-67
2023/12/16 16:07:58;;;;;;;3.03;1.10;;;;;;;7.06;56.94;102175.00;10493493;28;20044;-67
2023/12/16 16:13:00;;;;;;;5.25;1.70;;;;;;;6.97;57.01;102171.66;10512933;28;20135;-67
2023/12/16 16:18:03;;;;;;;5.53;1.60;;;;;;;6.84;57.19;102176.09;10495708;28;20480;-68
2023/12/16 16:23:05;;;;;;;5.93;1.60;;;;;;;6.72;57.53;102178.81;10513074;28;20235;-69
2023/12/16 16:28:07;;;;;;;3.05;1.40;;;;;;;6.76;57.70;102179.63;10510105;28;20039;-68
2023/12/16 16:33:10;;;;;;;5.68;2.20;;;;;;;6.94;57.69;102182.06;10510342;28;20067;-68
2023/12/16 16:38:12;;;;;;;7.15;2.15;;;;;;;7.01;57.60;102179.41;10494448;28;20113;-68
2023/12/16 16:43:14;;;;;;;2.67;1.60;;;;;;;7.13;57.45;102186.22;10510975;28;20123;-68
2023/12/16 16:48:16;;;;;;;4.20;1.90;;;;;;;7.13;57.25;102179.28;10517549;28;20499;-68
2023/12/16 16:53:18;;;;;;;4.07;1.80;;;;;;;7.27;57.46;102189.56;10534033;28;20511;-68
2023/12/16 16:58:20;;;;;;;5.93;1.95;;;;;;;7.28;57.35;102195.63;10501553;28;20406;-69
2023/12/16 17:03:22;;;;;;;7.85;1.77;;;;;;;7.18;57.53;102189.66;10519179;28;20052;-68
2023/12/16 17:08:24;;;;;;;6.45;1.90;;;;;;;7.13;57.63;102196.63;10515364;28;20051;-69
2023/12/16 17:13:27;;;;;;;4.80;1.90;;;;;;;7.20;57.73;102182.69;10518970;28;20123;-68
2023/12/16 17:18:29;;;;;;;10.90;2.85;;;;;;;7.21;57.69;102179.19;10493184;28;20046;-68
2023/12/16 17:23:32;;;;;;;5.00;1.70;;;;;;;7.19;57.57;102163.63;10499454;28;20096;-68
2023/12/16 17:28:34;;;;;;;4.00;1.38;;;;;;;7.22;57.58;102177.47;10513288;28;20054;-69
2023/12/16 17:33:37;;;;;;;4.68;1.70;;;;;;;7.20;57.73;102182.69;10513182;28;20170;-69
2023/12/16 17:38:39;;;;;;;5.43;1.90;;;;;;;7.20;57.62;102193.94;10513958;28;20211;-69
2023/12/16 17:43:41;;;;;;;3.47;2.08;;;;;;;7.27;57.53;102209.50;10511288;28;20036;-69
2023/12/16 17:48:43;;;;;;;4.85;1.27;;;;;;;7.30;57.53;102217.28;10497552;28;20048;-69
2023/12/16 17:53:46;;;;;;;2.63;1.30;;;;;;;7.27;57.64;102218.19;10512067;28;20484;-69
2023/12/16 17:58:48;;;;;;;5.65;1.88;;;;;;;7.18;57.78;102215.69;10506128;28;20044;-69
2023/12/16 18:03:53;;;;;;;4.68;2.28;;;;;;;7.08;58.29;102233.09;10510779;28;20330;-70
2023/12/16 18:08:56;;;;;;;3.42;1.67;;;;;;;7.20;58.29;102237.34;10508861;28;20059;-71
2023/12/16 18:13:58;;;;;;;2.83;1.55;;;;;;;7.19;58.36;102252.09;10511744;28;20044;-71
2023/12/16 18:19:01;;;;;;;4.15;1.50;;;;;;;7.31;58.29;102271.06;10494456;28;20495;-70
2023/12/16 18:24:04;;;;;;;3.47;1.73;;;;;;;7.26;58.50;102263.31;10509176;28;20036;-70
2023/12/16 18:29:06;;;;;;;5.05;1.92;;;;;;;7.35;58.68;102268.41;10526084;27;20046;-70
2023/12/16 18:34:11;;;;;;;9.18;1.65;;;;;;;7.37;58.67;102247.56;10510728;28;20048;-70
2023/12/16 18:39:14;;;;;;;7.55;3.60;;;;;;;7.38;58.61;102236.31;10474779;28;20412;-71
2023/12/16 18:44:16;;;;;;;8.38;1.80;;;;;;;7.45;58.80;102259.66;10487296;28;20143;-70
2023/12/16 18:49:20;;;;;;;2.92;1.67;;;;;;;7.55;58.80;102253.47;10509477;28;20052;-71
2023/12/16 18:54:22;;;;;;;2.53;1.40;;;;;;;7.52;58.89;102253.50;10505258;28;20051;-70
2023/12/16 18:59:24;;;;;;;4.68;1.70;;;;;;;7.45;59.23;102233.59;10491622;28;20047;-69
2023/12/16 19:04:26;;;;;;;7.53;1.80;;;;;;;7.46;59.53;102230.13;10507259;28;20043;-69
2023/12/16 19:09:35;;;;;;;2.33;1.50;;;;;;;7.41;59.74;102221.50;10485940;28;20136;-70
2023/12/16 19:14:44;;;;;;;4.22;1.83;;;;;;;7.54;59.62;102222.25;10491417;28;20207;-70
2023/12/16 19:19:49;;;;;;;7.93;2.28;;;;;;;7.39;60.03;102223.25;10506155;28;20056;-70
2023/12/16 19:24:52;;;;;;;4.40;1.40;;;;;;;7.41;60.15;102224.09;10472518;28;20056;-69
2023/12/16 19:29:54;;;;;;;5.25;2.05;;;;;;;7.45;60.04;102233.59;10508509;28;20047;-70
2023/12/16 19:34:56;;;;;;;7.70;2.25;;;;;;;7.45;60.29;102231.00;10507558;28;20588;-70
2023/12/16 19:39:58;;;;;;;4.30;1.70;;;;;;;7.51;60.35;102236.16;10509139;28;20040;-69
2023/12/16 19:45:02;;;;;;;4.78;1.67;;;;;;;7.52;60.42;102231.81;10509759;28;20372;-70
2023/12/16 19:50:07;;;;;;;6.60;1.75;;;;;;;7.51;60.66;102225.72;10485320;28;20459;-70
2023/12/16 19:55:09;;;;;;;4.82;1.85;;;;;;;7.42;60.99;102240.59;10472950;28;20515;-69
2023/12/16 20:00:11;;;;;;;8.40;1.90;;;;;;;7.55;60.84;102235.22;10506927;28;20765;-70
2023/12/16 20:05:15;;;;;;;4.45;2.10;;;;;;;7.58;60.70;102222.19;10518055;28;20032;-70
2023/12/16 20:10:17;;;;;;;7.57;2.13;;;;;;;7.57;60.92;102220.44;10504816;28;20044;-71
2023/12/16 20:15:19;;;;;;;3.03;1.92;;;;;;;7.51;61.16;102215.31;10488191;28;20083;-69
2023/12/16 20:20:21;;;;;;;3.33;1.60;;;;;;;7.37;61.71;102218.94;10507427;28;20048;-70
2023/12/16 20:25:23;;;;;;;12.38;2.60;;;;;;;7.41;61.49;102223.22;10496558;28;20032;-70
2023/12/16 20:30:25;;;;;;;3.78;2.15;;;;;;;7.52;61.33;102232.69;10515998;28;20043;-70
2023/12/16 20:35:28;;;;;;;4.28;2.30;;;;;;;7.41;61.73;102225.84;10500680;28;20417;-69
2023/12/16 20:40:32;;;;;;;3.58;1.45;;;;;;;7.55;61.51;102230.03;10517312;28;20119;-70
2023/12/16 20:45:34;;;;;;;3.70;2.10;;;;;;;7.58;61.51;102237.81;10520492;28;20056;-70
2023/12/16 20:50:36;;;;;;;9.23;2.13;;;;;;;7.58;61.46;102214.38;10518882;28;20048;-69
2023/12/16 20:55:38;;;;;;;6.25;2.78;;;;;;;7.63;61.43;102199.56;10519307;28;20036;-69
2023/12/16 21:00:40;;;;;;;3.65;1.63;;;;;;;7.66;61.33;102196.94;10500448;28;20036;-70
2023/12/16 21:05:42;;;;;;;8.43;2.22;;;;;;;7.75;61.18;102203.78;10496286;28;20314;-69
2023/12/16 21:10:44;;;;;;;4.38;1.77;;;;;;;7.74;61.29;102213.31;10519441;28;20519;-68
2023/12/16 21:15:47;;;;;;;5.05;2.08;;;;;;;7.88;61.12;102227.03;10518903;28;20066;-69
2023/12/16 21:20:49;;;;;;;9.50;2.22;;;;;;;7.87;61.18;102208.84;10530405;27;20090;-69
2023/12/16 21:25:51;;;;;;;7.50;1.90;;;;;;;7.82;61.19;102190.66;10516781;28;20060;-68
2023/12/16 21:30:53;;;;;;;6.93;2.25;;;;;;;7.75;61.34;102193.34;10514428;28;20660;-68
2023/12/16 21:35:55;;;;;;;4.38;2.13;;;;;;;7.78;61.32;102183.75;10496501;28;20593;-68
2023/12/16 21:40:57;;;;;;;3.75;1.58;;;;;;;7.77;61.33;102179.41;10516891;28;20245;-69
2023/12/16 21:45:59;;;;;;;3.80;1.95;;;;;;;7.78;61.51;102170.72;10516827;28;20059;-69
2023/12/16 21:51:01;;;;;;;4.60;1.67;;;;;;;7.73;61.46;102190.75;10516633;28;20127;-68
2023/12/16 21:56:03;;;;;;;6.97;2.08;;;;;;;7.75;61.54;102209.81;10517841;28;20048;-68
2023/12/16 22:01:05;;;;;;;8.77;2.00;;;;;;;7.67;61.63;102197.78;10517408;28;20054;-69
2023/12/16 22:06:08;;;;;;;3.38;1.60;;;;;;;7.60;61.91;102198.72;10530588;27;20138;-69
2023/12/16 22:11:11;;;;;;;5.30;1.98;;;;;;;7.68;61.86;102200.38;10516925;28;20040;-68
2023/12/16 22:16:15;;;;;;;6.10;2.10;;;;;;;7.79;61.70;102214.13;10513391;28;20093;-67
2023/12/16 22:21:18;;;;;;;5.07;1.70;;;;;;;7.83;61.71;102207.97;10499021;28;20563;-68
2023/12/16 22:26:20;;;;;;;4.22;2.03;;;;;;;7.71;61.92;102223.75;10515394;28;20051;-69
2023/12/16 22:31:22;;;;;;;6.72;2.13;;;;;;;7.76;61.93;102242.81;10516833;28;20404;-68
2023/12/16 22:36:24;;;;;;;5.88;2.22;;;;;;;7.81;61.88;102246.22;10517417;28;20067;-69
2023/12/16 22:41:26;;;;;;;5.18;2.20;;;;;;;7.76;61.96;102240.22;10517781;28;20448;-69
2023/12/16 22:46:28;;;;;;;4.00;2.03;;;;;;;7.73;62.03;102244.59;10515718;28;20140;-70
2023/12/16 22:51:31;;;;;;;4.35;2.10;;;;;;;7.67;62.15;102247.28;10515901;28;20039;-69
2023/12/16 22:56:34;;;;;;;4.43;2.38;;;;;;;7.61;62.41;102255.16;10500089;28;20055;-68
2023/12/16 23:01:36;;;;;;;7.18;1.95;;;;;;;7.64;62.36;102247.28;10516922;28;20042;-69
2023/12/16 23:06:38;;;;;;;4.63;2.30;;;;;;;7.57;62.62;102245.66;10499234;28;20056;-69
2023/12/16 23:11:40;;;;;;;3.95;1.75;;;;;;;7.51;62.78;102232.72;10499179;28;20047;-69
2023/12/16 23:16:42;;;;;;;4.40;2.40;;;;;;;7.50;63.14;102231.84;10514421;28;20445;-70
2023/12/16 23:21:45;;;;;;;3.05;1.80;;;;;;;7.34;63.45;102238.09;10515291;28;20482;-69
2023/12/16 23:26:47;;;;;;;4.10;2.28;;;;;;;7.38;63.49;102224.16;10514407;28;20689;-69